sensor_id;sensor_type;location;lat;lon;timestamp;temperature;humidity
5802;DHT22;2927;49.366;8.530;2023-06-10T00:00:38;21.40;99.90
5802;DHT22;2927;49.366;8.530;2023-06-10T00:03:06;21.40;99.90
5802;DHT22;2927;49.366;8.530;2023-06-10T00:05:32;21.40;99.90
5802;DHT22;2927;49.366;8.530;2023-06-10T00:08:00;21.30;99.90
5802;DHT22;2927;49.366;8.530;2023-06-10T00:10:27;21.30;99.90
5802;DHT22;2927;49.366;8.530;2023-06-10T00:12:52;21.30;99.90
5802;DHT22;2927;49.366;8.530;2023-06-10T00:15:18;21.20;99.90
5802;DHT22;2927;49.366;8.530;2023-06-10T00:17:44;21.20;99.90
5802;DHT22;2927;49.366;8.530;2023-06-10T00:20:10;21.10;99.90
5802;DHT22;2927;49.366;8.530;2023-06-10T00:22:38;21.00;99.90
5802;DHT22;2927;49.366;8.530;2023-06-10T00:25:05;21.00;99.90
5802;DHT22;2927;49.366;8.530;2023-06-10T00:27:32;20.90;99.90
5802;DHT22;2927;49.366;8.530;2023-06-10T00:30:04;20.80;99.90
5802;DHT22;2927;49.366;8.530;2023-06-10T00:32:36;20.80;99.90
5802;DHT22;2927;49.366;8.530;2023-06-10T00:35:02;20.70;99.90
5802;DHT22;2927;49.366;8.530;2023-06-10T00:37:28;20.60;99.90
5802;DHT22;2927;49.366;8.530;2023-06-10T00:39:54;20.40;1.00
5802;DHT22;2927;49.366;8.530;2023-06-10T00:42:20;20.40;1.00
5802;DHT22;2927;49.366;8.530;2023-06-10T00:44:47;20.30;1.00
5802;DHT22;2927;49.366;8.530;2023-06-10T00:47:13;20.20;1.00
5802;DHT22;2927;49.366;8.530;2023-06-10T00:49:39;20.00;1.00
5802;DHT22;2927;49.366;8.530;2023-06-10T00:52:07;19.90;1.00
5802;DHT22;2927;49.366;8.530;2023-06-10T00:54:33;19.70;1.00
5802;DHT22;2927;49.366;8.530;2023-06-10T00:57:01;19.50;1.00
5802;DHT22;2927;49.366;8.530;2023-06-10T00:59:28;19.50;1.00
5802;DHT22;2927;49.366;8.530;2023-06-10T01:01:54;19.40;99.90
5802;DHT22;2927;49.366;8.530;2023-06-10T01:04:20;19.30;99.90
5802;DHT22;2927;49.366;8.530;2023-06-10T01:07:56;19.30;99.90
5802;DHT22;2927;49.366;8.530;2023-06-10T01:09:54;19.20;1.00
5802;DHT22;2927;49.366;8.530;2023-06-10T01:14:47;18.90;1.00
5802;DHT22;2927;49.366;8.530;2023-06-10T01:17:14;18.80;1.00
5802;DHT22;2927;49.366;8.530;2023-06-10T01:19:41;18.70;1.00
5802;DHT22;2927;49.366;8.530;2023-06-10T01:22:09;18.70;1.00
5802;DHT22;2927;49.366;8.530;2023-06-10T01:24:36;18.70;1.00
5802;DHT22;2927;49.366;8.530;2023-06-10T01:27:05;18.70;1.00
5802;DHT22;2927;49.366;8.530;2023-06-10T01:29:38;18.70;1.00
5802;DHT22;2927;49.366;8.530;2023-06-10T01:32:27;18.70;1.00
5802;DHT22;2927;49.366;8.530;2023-06-10T01:34:54;18.70;1.00
5802;DHT22;2927;49.366;8.530;2023-06-10T01:37:23;18.70;1.00
5802;DHT22;2927;49.366;8.530;2023-06-10T01:39:50;18.70;1.00
5802;DHT22;2927;49.366;8.530;2023-06-10T01:42:17;18.70;1.00
5802;DHT22;2927;49.366;8.530;2023-06-10T01:44:42;18.60;1.00
5802;DHT22;2927;49.366;8.530;2023-06-10T01:47:08;18.50;1.00
5802;DHT22;2927;49.366;8.530;2023-06-10T01:49:34;18.50;1.00
5802;DHT22;2927;49.366;8.530;2023-06-10T01:52:00;18.40;1.00
5802;DHT22;2927;49.366;8.530;2023-06-10T01:54:25;18.40;1.00
5802;DHT22;2927;49.366;8.530;2023-06-10T01:56:51;18.30;1.00
5802;DHT22;2927;49.366;8.530;2023-06-10T01:59:17;18.30;91.50
5802;DHT22;2927;49.366;8.530;2023-06-10T02:01:42;18.20;95.80
5802;DHT22;2927;49.366;8.530;2023-06-10T02:04:08;18.30;1.00
5802;DHT22;2927;49.366;8.530;2023-06-10T02:06:33;18.30;99.90
5802;DHT22;2927;49.366;8.530;2023-06-10T02:09:00;18.30;99.90
5802;DHT22;2927;49.366;8.530;2023-06-10T02:11:26;18.30;99.90
5802;DHT22;2927;49.366;8.530;2023-06-10T02:13:52;18.30;99.90
5802;DHT22;2927;49.366;8.530;2023-06-10T02:16:17;18.30;99.90
5802;DHT22;2927;49.366;8.530;2023-06-10T02:18:44;18.20;1.00
5802;DHT22;2927;49.366;8.530;2023-06-10T02:21:10;18.30;1.00
5802;DHT22;2927;49.366;8.530;2023-06-10T02:23:35;18.30;99.90
5802;DHT22;2927;49.366;8.530;2023-06-10T02:26:01;18.40;99.90
5802;DHT22;2927;49.366;8.530;2023-06-10T02:28:27;18.40;99.90
5802;DHT22;2927;49.366;8.530;2023-06-10T02:30:53;18.30;99.90
5802;DHT22;2927;49.366;8.530;2023-06-10T02:33:18;18.30;99.90
5802;DHT22;2927;49.366;8.530;2023-06-10T02:35:45;18.30;99.90
5802;DHT22;2927;49.366;8.530;2023-06-10T02:38:11;18.30;99.90
5802;DHT22;2927;49.366;8.530;2023-06-10T02:40:36;18.20;99.90
5802;DHT22;2927;49.366;8.530;2023-06-10T02:43:02;18.20;99.90
5802;DHT22;2927;49.366;8.530;2023-06-10T02:45:27;18.20;99.90
5802;DHT22;2927;49.366;8.530;2023-06-10T02:47:53;18.10;1.00
5802;DHT22;2927;49.366;8.530;2023-06-10T02:50:18;18.10;1.00
5802;DHT22;2927;49.366;8.530;2023-06-10T02:52:44;18.00;1.00
5802;DHT22;2927;49.366;8.530;2023-06-10T02:55:10;17.90;1.00
5802;DHT22;2927;49.366;8.530;2023-06-10T02:57:36;18.00;1.00
5802;DHT22;2927;49.366;8.530;2023-06-10T03:00:01;18.00;1.00
5802;DHT22;2927;49.366;8.530;2023-06-10T03:02:29;18.00;1.00
5802;DHT22;2927;49.366;8.530;2023-06-10T03:04:57;18.00;1.00
5802;DHT22;2927;49.366;8.530;2023-06-10T03:07:23;18.00;1.00
5802;DHT22;2927;49.366;8.530;2023-06-10T03:09:49;17.90;41.50
5802;DHT22;2927;49.366;8.530;2023-06-10T03:12:15;17.80;47.70
5802;DHT22;2927;49.366;8.530;2023-06-10T03:14:41;17.70;1.00
5802;DHT22;2927;49.366;8.530;2023-06-10T03:17:07;17.60;1.00
5802;DHT22;2927;49.366;8.530;2023-06-10T03:19:34;17.60;1.00
5802;DHT22;2927;49.366;8.530;2023-06-10T03:22:13;17.60;1.00
5802;DHT22;2927;49.366;8.530;2023-06-10T03:24:39;17.50;99.90
5802;DHT22;2927;49.366;8.530;2023-06-10T03:27:08;17.40;1.00
5802;DHT22;2927;49.366;8.530;2023-06-10T03:29:35;17.50;1.00
5802;DHT22;2927;49.366;8.530;2023-06-10T03:32:01;17.50;1.00
5802;DHT22;2927;49.366;8.530;2023-06-10T03:34:26;17.50;1.00
5802;DHT22;2927;49.366;8.530;2023-06-10T03:36:52;17.50;1.00
5802;DHT22;2927;49.366;8.530;2023-06-10T03:39:18;17.40;1.00
5802;DHT22;2927;49.366;8.530;2023-06-10T03:41:43;17.50;1.00
5802;DHT22;2927;49.366;8.530;2023-06-10T03:44:09;17.40;1.00
5802;DHT22;2927;49.366;8.530;2023-06-10T03:46:34;17.50;1.00
5802;DHT22;2927;49.366;8.530;2023-06-10T03:49:00;17.40;1.00
5802;DHT22;2927;49.366;8.530;2023-06-10T03:51:29;17.30;1.00
5802;DHT22;2927;49.366;8.530;2023-06-10T03:53:54;17.20;1.00
5802;DHT22;2927;49.366;8.530;2023-06-10T03:56:20;17.20;1.00
5802;DHT22;2927;49.366;8.530;2023-06-10T03:58:45;17.20;99.90
5802;DHT22;2927;49.366;8.530;2023-06-10T04:01:11;17.40;1.00
5802;DHT22;2927;49.366;8.530;2023-06-10T04:03:38;17.30;99.90
5802;DHT22;2927;49.366;8.530;2023-06-10T04:06:06;17.30;99.90
5802;DHT22;2927;49.366;8.530;2023-06-10T04:08:31;17.20;1.00
5802;DHT22;2927;49.366;8.530;2023-06-10T04:10:58;17.20;99.90
5802;DHT22;2927;49.366;8.530;2023-06-10T04:13:23;17.20;99.90
5802;DHT22;2927;49.366;8.530;2023-06-10T04:15:49;17.10;1.00
5802;DHT22;2927;49.366;8.530;2023-06-10T04:18:15;17.10;1.00
5802;DHT22;2927;49.366;8.530;2023-06-10T04:20:41;17.20;16.00
5802;DHT22;2927;49.366;8.530;2023-06-10T04:23:07;17.10;99.90
5802;DHT22;2927;49.366;8.530;2023-06-10T04:25:32;17.10;1.00
5802;DHT22;2927;49.366;8.530;2023-06-10T04:27:58;17.10;1.00
5802;DHT22;2927;49.366;8.530;2023-06-10T04:30:23;17.10;1.00
5802;DHT22;2927;49.366;8.530;2023-06-10T04:32:49;17.20;1.00
5802;DHT22;2927;49.366;8.530;2023-06-10T04:35:15;17.20;1.00
5802;DHT22;2927;49.366;8.530;2023-06-10T04:37:41;17.30;1.00
5802;DHT22;2927;49.366;8.530;2023-06-10T04:40:08;17.40;1.00
5802;DHT22;2927;49.366;8.530;2023-06-10T04:42:35;17.50;1.00
5802;DHT22;2927;49.366;8.530;2023-06-10T04:45:01;17.60;1.00
5802;DHT22;2927;49.366;8.530;2023-06-10T04:47:27;17.80;1.00
5802;DHT22;2927;49.366;8.530;2023-06-10T04:49:53;17.90;99.90
5802;DHT22;2927;49.366;8.530;2023-06-10T04:52:19;18.00;1.00
5802;DHT22;2927;49.366;8.530;2023-06-10T04:54:45;18.10;1.00
5802;DHT22;2927;49.366;8.530;2023-06-10T04:57:10;18.10;99.90
5802;DHT22;2927;49.366;8.530;2023-06-10T04:59:37;18.30;1.00
5802;DHT22;2927;49.366;8.530;2023-06-10T05:02:04;18.40;1.00
5802;DHT22;2927;49.366;8.530;2023-06-10T05:04:30;18.50;1.00
5802;DHT22;2927;49.366;8.530;2023-06-10T05:06:56;18.70;1.00
5802;DHT22;2927;49.366;8.530;2023-06-10T05:09:21;18.80;99.90
5802;DHT22;2927;49.366;8.530;2023-06-10T05:11:47;19.00;99.90
5802;DHT22;2927;49.366;8.530;2023-06-10T05:14:12;19.20;99.90
5802;DHT22;2927;49.366;8.530;2023-06-10T05:16:38;19.30;1.00
5802;DHT22;2927;49.366;8.530;2023-06-10T05:19:04;19.40;99.90
5802;DHT22;2927;49.366;8.530;2023-06-10T05:21:30;19.50;1.00
5802;DHT22;2927;49.366;8.530;2023-06-10T05:23:55;19.70;99.90
5802;DHT22;2927;49.366;8.530;2023-06-10T05:26:21;19.80;1.00
5802;DHT22;2927;49.366;8.530;2023-06-10T05:28:47;20.00;99.90
5802;DHT22;2927;49.366;8.530;2023-06-10T05:31:12;20.10;1.00
5802;DHT22;2927;49.366;8.530;2023-06-10T05:33:39;20.30;1.00
5802;DHT22;2927;49.366;8.530;2023-06-10T05:36:05;20.50;1.00
5802;DHT22;2927;49.366;8.530;2023-06-10T05:38:30;20.70;99.90
5802;DHT22;2927;49.366;8.530;2023-06-10T05:40:56;21.00;1.00
5802;DHT22;2927;49.366;8.530;2023-06-10T05:43:22;21.20;1.00
5802;DHT22;2927;49.366;8.530;2023-06-10T05:45:48;21.50;99.90
5802;DHT22;2927;49.366;8.530;2023-06-10T05:48:13;21.80;99.90
5802;DHT22;2927;49.366;8.530;2023-06-10T05:50:39;22.10;99.90
5802;DHT22;2927;49.366;8.530;2023-06-10T05:53:07;22.60;1.00
5802;DHT22;2927;49.366;8.530;2023-06-10T05:55:41;23.80;1.00
5802;DHT22;2927;49.366;8.530;2023-06-10T05:58:06;26.50;99.90
5802;DHT22;2927;49.366;8.530;2023-06-10T06:00:32;28.30;99.90
5802;DHT22;2927;49.366;8.530;2023-06-10T06:02:57;29.60;18.80
5802;DHT22;2927;49.366;8.530;2023-06-10T06:05:24;31.10;1.00
5802;DHT22;2927;49.366;8.530;2023-06-10T06:07:49;31.30;1.00
5802;DHT22;2927;49.366;8.530;2023-06-10T06:10:17;31.90;1.00
5802;DHT22;2927;49.366;8.530;2023-06-10T06:12:42;32.20;1.00
5802;DHT22;2927;49.366;8.530;2023-06-10T06:15:08;32.40;1.00
5802;DHT22;2927;49.366;8.530;2023-06-10T06:17:34;33.20;1.00
5802;DHT22;2927;49.366;8.530;2023-06-10T06:20:00;33.50;1.00
5802;DHT22;2927;49.366;8.530;2023-06-10T06:22:26;33.90;1.00
5802;DHT22;2927;49.366;8.530;2023-06-10T06:24:51;34.40;1.00
5802;DHT22;2927;49.366;8.530;2023-06-10T06:27:17;35.10;1.00
5802;DHT22;2927;49.366;8.530;2023-06-10T06:29:42;34.80;1.00
5802;DHT22;2927;49.366;8.530;2023-06-10T06:32:08;35.40;1.00
5802;DHT22;2927;49.366;8.530;2023-06-10T06:34:33;35.30;1.00
5802;DHT22;2927;49.366;8.530;2023-06-10T06:36:59;35.00;1.00
5802;DHT22;2927;49.366;8.530;2023-06-10T06:39:24;34.40;1.00
5802;DHT22;2927;49.366;8.530;2023-06-10T06:41:50;34.90;1.00
5802;DHT22;2927;49.366;8.530;2023-06-10T06:44:16;35.90;1.00
5802;DHT22;2927;49.366;8.530;2023-06-10T06:46:41;35.50;1.00
5802;DHT22;2927;49.366;8.530;2023-06-10T06:49:07;36.10;1.00
5802;DHT22;2927;49.366;8.530;2023-06-10T06:51:32;35.40;1.00
5802;DHT22;2927;49.366;8.530;2023-06-10T06:53:58;35.50;1.00
5802;DHT22;2927;49.366;8.530;2023-06-10T06:56:24;35.40;1.00
5802;DHT22;2927;49.366;8.530;2023-06-10T06:58:52;35.70;1.00
5802;DHT22;2927;49.366;8.530;2023-06-10T07:01:17;35.90;1.00
5802;DHT22;2927;49.366;8.530;2023-06-10T07:03:43;35.80;1.00
5802;DHT22;2927;49.366;8.530;2023-06-10T07:06:09;36.20;1.00
5802;DHT22;2927;49.366;8.530;2023-06-10T07:08:34;36.80;1.00
5802;DHT22;2927;49.366;8.530;2023-06-10T07:11:00;37.70;1.00
5802;DHT22;2927;49.366;8.530;2023-06-10T07:13:25;37.70;1.00
5802;DHT22;2927;49.366;8.530;2023-06-10T07:15:51;37.70;1.00
5802;DHT22;2927;49.366;8.530;2023-06-10T07:18:16;37.70;1.00
5802;DHT22;2927;49.366;8.530;2023-06-10T07:20:44;38.40;1.00
5802;DHT22;2927;49.366;8.530;2023-06-10T07:23:10;38.10;1.00
5802;DHT22;2927;49.366;8.530;2023-06-10T07:25:36;38.10;1.00
5802;DHT22;2927;49.366;8.530;2023-06-10T07:28:01;37.70;1.00
5802;DHT22;2927;49.366;8.530;2023-06-10T07:30:28;38.20;1.00
5802;DHT22;2927;49.366;8.530;2023-06-10T07:32:53;37.70;1.00
5802;DHT22;2927;49.366;8.530;2023-06-10T07:35:19;37.60;1.00
5802;DHT22;2927;49.366;8.530;2023-06-10T07:37:44;38.20;1.00
5802;DHT22;2927;49.366;8.530;2023-06-10T07:40:10;38.30;1.00
5802;DHT22;2927;49.366;8.530;2023-06-10T07:42:36;38.50;1.00
5802;DHT22;2927;49.366;8.530;2023-06-10T07:45:03;38.70;1.00
5802;DHT22;2927;49.366;8.530;2023-06-10T07:47:29;38.00;1.00
5802;DHT22;2927;49.366;8.530;2023-06-10T07:49:55;37.60;1.00
5802;DHT22;2927;49.366;8.530;2023-06-10T07:52:21;37.70;1.00
5802;DHT22;2927;49.366;8.530;2023-06-10T07:54:46;36.50;1.00
5802;DHT22;2927;49.366;8.530;2023-06-10T07:57:12;36.80;1.00
5802;DHT22;2927;49.366;8.530;2023-06-10T07:59:38;36.60;1.00
5802;DHT22;2927;49.366;8.530;2023-06-10T08:02:04;36.00;1.00
5802;DHT22;2927;49.366;8.530;2023-06-10T08:04:29;35.90;1.00
5802;DHT22;2927;49.366;8.530;2023-06-10T08:06:56;35.80;1.00
5802;DHT22;2927;49.366;8.530;2023-06-10T08:09:22;35.60;1.00
5802;DHT22;2927;49.366;8.530;2023-06-10T08:11:48;35.00;1.00
5802;DHT22;2927;49.366;8.530;2023-06-10T08:14:15;35.20;1.00
5802;DHT22;2927;49.366;8.530;2023-06-10T08:16:43;34.60;1.00
5802;DHT22;2927;49.366;8.530;2023-06-10T08:19:09;35.00;1.00
5802;DHT22;2927;49.366;8.530;2023-06-10T08:21:37;35.60;1.00
5802;DHT22;2927;49.366;8.530;2023-06-10T08:24:05;35.30;1.00
5802;DHT22;2927;49.366;8.530;2023-06-10T08:26:31;34.90;1.00
5802;DHT22;2927;49.366;8.530;2023-06-10T08:28:56;35.20;1.00
5802;DHT22;2927;49.366;8.530;2023-06-10T08:31:22;35.10;1.00
5802;DHT22;2927;49.366;8.530;2023-06-10T08:33:47;35.10;1.00
5802;DHT22;2927;49.366;8.530;2023-06-10T08:36:13;35.00;1.00
5802;DHT22;2927;49.366;8.530;2023-06-10T08:38:39;35.20;1.00
5802;DHT22;2927;49.366;8.530;2023-06-10T08:41:05;34.90;1.00
5802;DHT22;2927;49.366;8.530;2023-06-10T08:43:35;35.30;1.00
5802;DHT22;2927;49.366;8.530;2023-06-10T08:46:03;36.00;1.00
5802;DHT22;2927;49.366;8.530;2023-06-10T08:48:29;35.40;1.00
5802;DHT22;2927;49.366;8.530;2023-06-10T08:50:57;35.30;1.00
5802;DHT22;2927;49.366;8.530;2023-06-10T08:53:23;36.00;1.00
5802;DHT22;2927;49.366;8.530;2023-06-10T08:55:53;35.50;1.00
5802;DHT22;2927;49.366;8.530;2023-06-10T08:58:20;36.90;1.00
5802;DHT22;2927;49.366;8.530;2023-06-10T09:00:46;37.80;1.00
5802;DHT22;2927;49.366;8.530;2023-06-10T09:03:12;37.30;1.00
5802;DHT22;2927;49.366;8.530;2023-06-10T09:05:38;37.00;1.00
5802;DHT22;2927;49.366;8.530;2023-06-10T09:08:05;37.00;1.00
5802;DHT22;2927;49.366;8.530;2023-06-10T09:10:32;36.00;1.00
5802;DHT22;2927;49.366;8.530;2023-06-10T09:12:58;35.40;1.00
5802;DHT22;2927;49.366;8.530;2023-06-10T09:15:23;36.50;1.00
5802;DHT22;2927;49.366;8.530;2023-06-10T09:17:49;36.60;1.00
5802;DHT22;2927;49.366;8.530;2023-06-10T09:20:15;35.90;1.00
5802;DHT22;2927;49.366;8.530;2023-06-10T09:22:42;35.30;1.00
5802;DHT22;2927;49.366;8.530;2023-06-10T09:25:10;35.40;1.00
5802;DHT22;2927;49.366;8.530;2023-06-10T09:27:46;35.20;1.00
5802;DHT22;2927;49.366;8.530;2023-06-10T09:33:00;36.60;1.00
5802;DHT22;2927;49.366;8.530;2023-06-10T09:35:29;36.40;1.00
5802;DHT22;2927;49.366;8.530;2023-06-10T09:37:56;37.10;1.00
5802;DHT22;2927;49.366;8.530;2023-06-10T09:40:22;37.90;1.00
5802;DHT22;2927;49.366;8.530;2023-06-10T09:42:56;38.60;1.00
5802;DHT22;2927;49.366;8.530;2023-06-10T09:45:23;38.00;1.00
5802;DHT22;2927;49.366;8.530;2023-06-10T09:47:53;37.70;1.00
5802;DHT22;2927;49.366;8.530;2023-06-10T09:50:19;37.10;1.00
5802;DHT22;2927;49.366;8.530;2023-06-10T09:52:46;36.40;1.00
5802;DHT22;2927;49.366;8.530;2023-06-10T09:55:13;36.20;1.00
5802;DHT22;2927;49.366;8.530;2023-06-10T09:57:38;35.50;1.00
5802;DHT22;2927;49.366;8.530;2023-06-10T10:00:10;36.50;1.00
5802;DHT22;2927;49.366;8.530;2023-06-10T10:02:54;35.90;1.00
5802;DHT22;2927;49.366;8.530;2023-06-10T10:05:23;34.20;1.00
5802;DHT22;2927;49.366;8.530;2023-06-10T10:07:49;32.80;1.00
5802;DHT22;2927;49.366;8.530;2023-06-10T10:10:16;33.60;1.00
5802;DHT22;2927;49.366;8.530;2023-06-10T10:12:42;33.80;1.00
5802;DHT22;2927;49.366;8.530;2023-06-10T10:15:11;33.50;1.00
5802;DHT22;2927;49.366;8.530;2023-06-10T10:17:40;33.30;1.00
5802;DHT22;2927;49.366;8.530;2023-06-10T10:20:12;33.80;1.00
5802;DHT22;2927;49.366;8.530;2023-06-10T10:22:41;34.30;1.00
5802;DHT22;2927;49.366;8.530;2023-06-10T10:25:13;34.70;1.00
5802;DHT22;2927;49.366;8.530;2023-06-10T10:30:14;33.50;1.00
5802;DHT22;2927;49.366;8.530;2023-06-10T10:35:24;32.90;1.00
5802;DHT22;2927;49.366;8.530;2023-06-10T10:37:52;32.90;1.00
5802;DHT22;2927;49.366;8.530;2023-06-10T10:40:19;32.50;1.00
5802;DHT22;2927;49.366;8.530;2023-06-10T10:42:45;32.40;1.00
5802;DHT22;2927;49.366;8.530;2023-06-10T10:45:10;32.10;1.00
5802;DHT22;2927;49.366;8.530;2023-06-10T10:47:36;31.50;1.00
5802;DHT22;2927;49.366;8.530;2023-06-10T10:50:14;31.20;1.00
5802;DHT22;2927;49.366;8.530;2023-06-10T10:52:54;31.00;1.00
5802;DHT22;2927;49.366;8.530;2023-06-10T10:55:24;30.80;1.00
5802;DHT22;2927;49.366;8.530;2023-06-10T10:58:14;30.90;1.00
5802;DHT22;2927;49.366;8.530;2023-06-10T11:00:44;30.70;1.00
5802;DHT22;2927;49.366;8.530;2023-06-10T11:03:14;30.50;1.00
5802;DHT22;2927;49.366;8.530;2023-06-10T11:05:42;30.80;1.00
5802;DHT22;2927;49.366;8.530;2023-06-10T11:08:14;30.60;1.00
5802;DHT22;2927;49.366;8.530;2023-06-10T11:10:50;30.30;1.00
5802;DHT22;2927;49.366;8.530;2023-06-10T11:13:19;30.10;1.00
5802;DHT22;2927;49.366;8.530;2023-06-10T11:15:57;30.10;1.00
5802;DHT22;2927;49.366;8.530;2023-06-10T11:18:30;30.20;1.00
5802;DHT22;2927;49.366;8.530;2023-06-10T11:21:01;30.20;1.00
5802;DHT22;2927;49.366;8.530;2023-06-10T11:31:30;30.00;1.00
5802;DHT22;2927;49.366;8.530;2023-06-10T11:36:26;30.20;1.00
5802;DHT22;2927;49.366;8.530;2023-06-10T11:38:58;30.00;1.00
5802;DHT22;2927;49.366;8.530;2023-06-10T11:41:25;29.90;1.00
5802;DHT22;2927;49.366;8.530;2023-06-10T11:43:52;29.90;1.00
5802;DHT22;2927;49.366;8.530;2023-06-10T11:46:18;29.80;1.00
5802;DHT22;2927;49.366;8.530;2023-06-10T11:49:13;30.00;1.00
5802;DHT22;2927;49.366;8.530;2023-06-10T11:51:39;30.20;1.00
5802;DHT22;2927;49.366;8.530;2023-06-10T11:54:08;30.30;1.00
5802;DHT22;2927;49.366;8.530;2023-06-10T11:56:34;30.40;1.00
5802;DHT22;2927;49.366;8.530;2023-06-10T11:59:04;30.60;1.00
5802;DHT22;2927;49.366;8.530;2023-06-10T12:01:34;30.80;1.00
5802;DHT22;2927;49.366;8.530;2023-06-10T12:04:10;30.70;1.00
5802;DHT22;2927;49.366;8.530;2023-06-10T12:06:40;30.70;1.00
5802;DHT22;2927;49.366;8.530;2023-06-10T12:09:12;30.50;1.00
5802;DHT22;2927;49.366;8.530;2023-06-10T12:11:38;30.30;1.00
5802;DHT22;2927;49.366;8.530;2023-06-10T12:14:05;30.30;1.00
5802;DHT22;2927;49.366;8.530;2023-06-10T12:16:31;30.20;1.00
5802;DHT22;2927;49.366;8.530;2023-06-10T12:19:02;30.10;1.00
5802;DHT22;2927;49.366;8.530;2023-06-10T12:21:28;30.20;1.00
5802;DHT22;2927;49.366;8.530;2023-06-10T12:26:42;30.60;1.00
5802;DHT22;2927;49.366;8.530;2023-06-10T12:32:01;30.40;1.00
5802;DHT22;2927;49.366;8.530;2023-06-10T12:34:40;30.50;1.00
5802;DHT22;2927;49.366;8.530;2023-06-10T12:37:10;30.60;1.00
5802;DHT22;2927;49.366;8.530;2023-06-10T12:39:39;30.80;1.00
5802;DHT22;2927;49.366;8.530;2023-06-10T12:42:05;31.10;1.00
5802;DHT22;2927;49.366;8.530;2023-06-10T12:44:35;31.00;1.00
5802;DHT22;2927;49.366;8.530;2023-06-10T12:47:10;31.10;1.00
5802;DHT22;2927;49.366;8.530;2023-06-10T12:49:37;30.60;1.00
5802;DHT22;2927;49.366;8.530;2023-06-10T12:52:04;30.30;1.00
5802;DHT22;2927;49.366;8.530;2023-06-10T12:54:30;30.20;1.00
5802;DHT22;2927;49.366;8.530;2023-06-10T12:56:55;30.10;1.00
5802;DHT22;2927;49.366;8.530;2023-06-10T12:59:21;30.10;1.00
5802;DHT22;2927;49.366;8.530;2023-06-10T13:01:54;29.90;1.00
5802;DHT22;2927;49.366;8.530;2023-06-10T13:04:20;29.90;1.00
5802;DHT22;2927;49.366;8.530;2023-06-10T13:06:47;29.80;1.00
5802;DHT22;2927;49.366;8.530;2023-06-10T13:09:13;29.80;1.00
5802;DHT22;2927;49.366;8.530;2023-06-10T13:11:39;29.80;1.00
5802;DHT22;2927;49.366;8.530;2023-06-10T13:14:05;29.70;1.00
5802;DHT22;2927;49.366;8.530;2023-06-10T13:16:32;29.60;1.00
5802;DHT22;2927;49.366;8.530;2023-06-10T13:18:58;29.70;1.00
5802;DHT22;2927;49.366;8.530;2023-06-10T13:21:24;29.90;1.00
5802;DHT22;2927;49.366;8.530;2023-06-10T13:23:50;29.90;1.00
5802;DHT22;2927;49.366;8.530;2023-06-10T13:26:16;30.00;1.00
5802;DHT22;2927;49.366;8.530;2023-06-10T13:28:45;30.10;1.00
5802;DHT22;2927;49.366;8.530;2023-06-10T13:31:11;30.30;1.00
5802;DHT22;2927;49.366;8.530;2023-06-10T13:33:37;30.50;1.00
5802;DHT22;2927;49.366;8.530;2023-06-10T13:36:02;30.70;1.00
5802;DHT22;2927;49.366;8.530;2023-06-10T13:38:28;30.80;1.00
5802;DHT22;2927;49.366;8.530;2023-06-10T13:40:54;30.70;1.00
5802;DHT22;2927;49.366;8.530;2023-06-10T13:43:19;30.80;1.00
5802;DHT22;2927;49.366;8.530;2023-06-10T13:45:45;30.70;1.00
5802;DHT22;2927;49.366;8.530;2023-06-10T13:48:11;30.70;1.00
5802;DHT22;2927;49.366;8.530;2023-06-10T13:50:37;30.80;1.00
5802;DHT22;2927;49.366;8.530;2023-06-10T13:53:03;30.90;1.00
5802;DHT22;2927;49.366;8.530;2023-06-10T13:55:28;30.80;1.00
5802;DHT22;2927;49.366;8.530;2023-06-10T13:57:54;30.80;1.00
5802;DHT22;2927;49.366;8.530;2023-06-10T14:00:19;30.70;1.00
5802;DHT22;2927;49.366;8.530;2023-06-10T14:02:45;30.80;1.00
5802;DHT22;2927;49.366;8.530;2023-06-10T14:05:11;30.80;1.00
5802;DHT22;2927;49.366;8.530;2023-06-10T14:07:37;30.90;1.00
5802;DHT22;2927;49.366;8.530;2023-06-10T14:10:03;31.00;1.00
5802;DHT22;2927;49.366;8.530;2023-06-10T14:12:29;31.10;1.00
5802;DHT22;2927;49.366;8.530;2023-06-10T14:14:54;31.00;1.00
5802;DHT22;2927;49.366;8.530;2023-06-10T14:17:20;30.80;1.00
5802;DHT22;2927;49.366;8.530;2023-06-10T14:19:45;30.40;1.00
5802;DHT22;2927;49.366;8.530;2023-06-10T14:22:11;30.00;1.00
5802;DHT22;2927;49.366;8.530;2023-06-10T14:24:36;30.00;1.00
5802;DHT22;2927;49.366;8.530;2023-06-10T14:27:03;30.20;1.00
5802;DHT22;2927;49.366;8.530;2023-06-10T14:29:28;30.40;1.00
5802;DHT22;2927;49.366;8.530;2023-06-10T14:31:55;30.70;1.00
5802;DHT22;2927;49.366;8.530;2023-06-10T14:34:20;30.40;1.00
5802;DHT22;2927;49.366;8.530;2023-06-10T14:36:48;30.30;1.00
5802;DHT22;2927;49.366;8.530;2023-06-10T14:39:14;30.30;1.00
5802;DHT22;2927;49.366;8.530;2023-06-10T14:41:39;30.30;1.00
5802;DHT22;2927;49.366;8.530;2023-06-10T14:44:05;30.40;1.00
5802;DHT22;2927;49.366;8.530;2023-06-10T14:46:31;30.40;1.00
5802;DHT22;2927;49.366;8.530;2023-06-10T14:48:56;30.30;1.00
5802;DHT22;2927;49.366;8.530;2023-06-10T14:51:24;30.40;1.00
5802;DHT22;2927;49.366;8.530;2023-06-10T14:53:50;30.40;1.00
5802;DHT22;2927;49.366;8.530;2023-06-10T14:56:16;30.40;1.00
5802;DHT22;2927;49.366;8.530;2023-06-10T14:58:41;30.40;1.00
5802;DHT22;2927;49.366;8.530;2023-06-10T15:01:07;30.40;1.00
5802;DHT22;2927;49.366;8.530;2023-06-10T15:03:32;30.40;1.00
5802;DHT22;2927;49.366;8.530;2023-06-10T15:05:58;30.70;1.00
5802;DHT22;2927;49.366;8.530;2023-06-10T15:08:25;30.50;1.00
5802;DHT22;2927;49.366;8.530;2023-06-10T15:10:51;30.50;1.00
5802;DHT22;2927;49.366;8.530;2023-06-10T15:13:17;30.70;1.00
5802;DHT22;2927;49.366;8.530;2023-06-10T15:15:42;30.60;1.00
5802;DHT22;2927;49.366;8.530;2023-06-10T15:18:08;30.70;1.00
5802;DHT22;2927;49.366;8.530;2023-06-10T15:20:33;30.60;1.00
5802;DHT22;2927;49.366;8.530;2023-06-10T15:22:59;30.70;1.00
5802;DHT22;2927;49.366;8.530;2023-06-10T15:25:24;30.80;1.00
5802;DHT22;2927;49.366;8.530;2023-06-10T15:27:51;30.60;1.00
5802;DHT22;2927;49.366;8.530;2023-06-10T15:30:18;30.60;1.00
5802;DHT22;2927;49.366;8.530;2023-06-10T15:32:44;30.60;1.00
5802;DHT22;2927;49.366;8.530;2023-06-10T15:35:10;30.70;1.00
5802;DHT22;2927;49.366;8.530;2023-06-10T15:37:37;30.50;1.00
5802;DHT22;2927;49.366;8.530;2023-06-10T15:40:03;30.50;1.00
5802;DHT22;2927;49.366;8.530;2023-06-10T15:42:28;30.60;1.00
5802;DHT22;2927;49.366;8.530;2023-06-10T15:44:54;30.70;1.00
5802;DHT22;2927;49.366;8.530;2023-06-10T15:47:20;30.70;1.00
5802;DHT22;2927;49.366;8.530;2023-06-10T15:49:46;30.80;1.00
5802;DHT22;2927;49.366;8.530;2023-06-10T15:52:11;30.50;1.00
5802;DHT22;2927;49.366;8.530;2023-06-10T15:54:37;30.40;1.00
5802;DHT22;2927;49.366;8.530;2023-06-10T15:57:03;30.50;1.00
5802;DHT22;2927;49.366;8.530;2023-06-10T15:59:30;30.50;1.00
5802;DHT22;2927;49.366;8.530;2023-06-10T16:01:55;30.60;1.00
5802;DHT22;2927;49.366;8.530;2023-06-10T16:04:21;30.60;1.00
5802;DHT22;2927;49.366;8.530;2023-06-10T16:06:46;30.60;1.00
5802;DHT22;2927;49.366;8.530;2023-06-10T16:09:14;30.80;1.00
5802;DHT22;2927;49.366;8.530;2023-06-10T16:11:40;30.80;1.00
5802;DHT22;2927;49.366;8.530;2023-06-10T16:14:05;30.60;1.00
5802;DHT22;2927;49.366;8.530;2023-06-10T16:16:31;30.70;1.00
5802;DHT22;2927;49.366;8.530;2023-06-10T16:18:56;30.90;1.00
5802;DHT22;2927;49.366;8.530;2023-06-10T16:21:22;31.10;1.00
5802;DHT22;2927;49.366;8.530;2023-06-10T16:23:48;31.20;1.00
5802;DHT22;2927;49.366;8.530;2023-06-10T16:26:13;31.00;1.00
5802;DHT22;2927;49.366;8.530;2023-06-10T16:28:39;31.00;1.00
5802;DHT22;2927;49.366;8.530;2023-06-10T16:31:04;31.00;1.00
5802;DHT22;2927;49.366;8.530;2023-06-10T16:33:30;30.80;1.00
5802;DHT22;2927;49.366;8.530;2023-06-10T16:35:55;30.90;1.00
5802;DHT22;2927;49.366;8.530;2023-06-10T16:38:21;30.80;1.00